Time;durP1;ratioP1;P1;durP2;ratioP2;P2;SDS_P1;SDS_P2;PMS_P1;PMS_P2;Temp;Humidity;BMP_temperature;BMP_pressure;BME280_temperature;BME280_humidity;BME280_pressure;Samples;Min_cycle;Max_cycle;Signal;HPM_P1;HPM_P2
2021/12/20 00:00:27;;;;;;;;;9.25;9.00;;;;;7.39;68.50;101961.50;5057208;28;71893;-62
2021/12/20 00:02:58;;;;;;;;;14.00;12.00;;;;;7.38;68.35;101962.44;5058002;28;47939;-62
2021/12/20 00:05:23;;;;;;;;;16.00;14.00;;;;;7.39;68.46;101969.34;5040245;28;45358;-62
2021/12/20 00:07:49;;;;;;;;;20.25;15.50;;;;;7.38;68.33;101967.66;5040193;28;45269;-61
2021/12/20 00:10:14;;;;;;;;;18.75;16.50;;;;;7.38;68.28;101962.44;5057776;28;46402;-62
2021/12/20 00:12:41;;;;;;;;;16.75;14.75;;;;;7.39;68.17;101958.88;5057932;28;45510;-61
2021/12/20 00:15:06;;;;;;;;;22.00;18.75;;;;;7.38;68.27;101951.97;5058078;28;45216;-61
2021/12/20 00:17:32;;;;;;;;;19.00;17.00;;;;;7.38;68.12;101951.97;5039635;28;45605;-62
2021/12/20 00:19:57;;;;;;;;;20.75;18.25;;;;;7.36;67.97;101951.19;5056956;28;65999;-61
2021/12/20 00:22:23;;;;;;;;;22.75;19.25;;;;;7.34;68.10;101953.88;5056913;28;64076;-62
2021/12/20 00:24:48;;;;;;;;;25.50;19.00;;;;;7.33;68.03;101953.97;5057552;28;45237;-61
2021/12/20 00:27:19;;;;;;;;;20.50;15.75;;;;;7.32;68.12;101952.28;5056386;28;62046;-62
2021/12/20 00:29:44;;;;;;;;;24.00;17.25;;;;;7.31;68.14;101943.56;5039442;28;47133;-61
2021/12/20 00:32:10;;;;;;;;;20.25;18.00;;;;;7.30;68.17;101938.44;5057391;28;49068;-61
2021/12/20 00:34:36;;;;;;;;;18.75;17.75;;;;;7.28;68.29;101939.38;5056845;28;64995;-61
2021/12/20 00:37:05;;;;;;;;;19.00;16.75;;;;;7.30;68.17;101941.06;5057872;28;45242;-61
2021/12/20 00:42:14;;;;;;;;;18.25;14.50;;;;;7.25;68.14;101946.50;5042395;28;45860;-61
2021/12/20 00:44:39;;;;;;;;;18.75;16.00;;;;;7.24;68.10;101945.69;5057617;28;45218;-60
2021/12/20 00:47:04;;;;;;;;;18.50;17.75;;;;;7.24;68.14;101945.69;5056801;28;63071;-63
2021/12/20 00:49:30;;;;;;;;;20.25;17.25;;;;;7.24;68.09;101932.59;5038905;28;50612;-61
2021/12/20 00:51:55;;;;;;;;;15.25;13.00;;;;;7.24;68.18;101937.84;5056498;28;69097;-62
2021/12/20 00:54:21;;;;;;;;;19.75;18.00;;;;;7.21;68.21;101935.38;5056597;28;64506;-62
2021/12/20 00:56:46;;;;;;;;;22.25;17.75;;;;;7.23;68.12;101941.38;5056634;28;45490;-60
2021/12/20 00:59:11;;;;;;;;;19.25;17.50;;;;;7.21;68.25;101929.28;5039157;28;45415;-62
2021/12/20 01:01:37;;;;;;;;;18.00;17.25;;;;;7.21;68.17;101924.91;5056323;28;69007;-61
2021/12/20 01:04:03;;;;;;;;;18.50;14.75;;;;;7.24;68.45;101929.13;5056525;28;58633;-62
2021/12/20 01:06:28;;;;;;;;;18.50;15.75;;;;;7.24;68.46;101930.00;5057127;28;45578;-61
2021/12/20 01:08:53;;;;;;;;;20.50;17.25;;;;;7.24;68.48;101921.28;5055885;28;73327;-60
2021/12/20 01:11:23;;;;;;;;;15.50;14.75;;;;;7.23;68.45;101923.06;5056750;28;45341;-61
2021/12/20 01:13:49;;;;;;;;;20.75;18.25;;;;;7.25;68.33;101917.75;5057119;28;45281;-61
2021/12/20 01:16:15;;;;;;;;;20.50;19.75;;;;;7.26;68.23;101922.91;5056914;28;45225;-61
2021/12/20 01:18:40;;;;;;;;;26.25;21.75;;;;;7.27;68.27;101918.50;5038807;28;45412;-61
2021/12/20 01:21:05;;;;;;;;;26.50;19.00;;;;;7.27;68.20;101918.50;5037925;28;64551;-60
2021/12/20 01:23:31;;;;;;;;;24.50;19.00;;;;;7.27;68.40;101913.28;5056838;28;45906;-62
2021/12/20 01:25:56;;;;;;;;;24.50;21.50;;;;;7.26;68.29;101917.69;5037835;28;65040;-62
2021/12/20 01:28:22;;;;;;;;;24.75;21.50;;;;;7.28;68.33;101920.22;5021295;28;65327;-61
2021/12/20 01:30:47;;;;;;;;;24.50;20.25;;;;;7.27;68.47;101919.38;5056741;28;45328;-63
2021/12/20 01:33:13;;;;;;;;;27.50;23.25;;;;;7.28;68.53;101915.84;5056099;28;63953;-61
2021/12/20 01:35:39;;;;;;;;;23.00;20.00;;;;;7.30;68.09;101920.13;5056916;28;45313;-62
2021/12/20 01:38:04;;;;;;;;;24.25;21.50;;;;;7.30;68.27;101913.13;5020988;28;46554;-61
2021/12/20 01:40:30;;;;;;;;;27.75;22.25;;;;;7.31;68.01;101911.38;5038431;28;45421;-62
2021/12/20 01:42:57;;;;;;;;;19.00;17.25;;;;;7.31;68.21;101914.81;5056768;28;45921;-61
2021/12/20 01:45:23;;;;;;;;;21.50;20.50;;;;;7.32;68.24;101913.88;5038729;28;45353;-61
2021/12/20 01:47:54;;;;;;;;;21.25;20.00;;;;;7.33;68.29;101917.38;5056306;28;47358;-61
2021/12/20 01:50:35;;;;;;;;;23.25;20.75;;;;;7.34;68.27;101909.44;5056306;28;45292;-61
2021/12/20 01:53:00;;;;;;;;;23.25;19.00;;;;;7.36;68.09;101901.53;5041021;28;45393;-62
2021/12/20 01:55:25;;;;;;;;;27.50;21.25;;;;;7.36;68.04;101906.75;5055591;28;66699;-61
2021/12/20 01:57:51;;;;;;;;;27.25;22.50;;;;;7.35;67.77;101905.06;5037322;28;73862;-61
2021/12/20 02:00:22;;;;;;;;;23.25;20.75;;;;;7.34;67.84;101903.38;5055495;28;69727;-62
2021/12/20 02:02:49;;;;;;;;;28.75;21.50;;;;;7.34;67.86;101900.75;5056489;28;45233;-60
2021/12/20 02:05:30;;;;;;;;;32.50;26.25;;;;;7.35;67.86;101894.59;5038730;28;45606;-62
2021/12/20 02:08:13;;;;;;;;;29.75;22.50;;;;;7.34;67.83;101898.97;5037826;28;47124;-62
2021/12/20 02:10:39;;;;;;;;;24.25;22.00;;;;;7.35;67.94;101894.59;5040914;28;45299;-62
2021/12/20 02:13:04;;;;;;;;;29.00;22.50;;;;;7.36;67.82;101888.44;5056236;28;45244;-61
2021/12/20 02:15:30;;;;;;;;;25.50;24.50;;;;;7.36;67.81;101894.50;5055518;28;61759;-63
2021/12/20 02:17:55;;;;;;;;;30.00;25.75;;;;;7.37;67.81;101892.75;5055734;28;56449;-61
2021/12/20 02:20:28;;;;;;;;;24.00;21.00;;;;;7.37;67.85;101893.56;5055398;28;65844;-62
2021/12/20 02:22:55;;;;;;;;;29.50;28.00;;;;;7.36;67.84;101891.88;5056140;28;45317;-60
2021/12/20 02:25:20;;;;;;;;;28.75;27.50;;;;;7.37;67.84;101898.81;5056003;28;45469;-62
2021/12/20 02:27:46;;;;;;;;;29.25;26.00;;;;;7.38;67.75;101891.81;5037673;28;58440;-61
2021/12/20 02:30:35;;;;;;;;;32.25;24.75;;;;;7.38;67.92;101895.25;5055960;28;45187;-60
2021/12/20 02:38:27;;;;;;;;;34.00;25.00;;;;;7.38;67.63;101894.44;5055829;28;45229;-62
2021/12/20 02:41:01;;;;;;;;;34.50;29.75;;;;;7.38;67.57;101886.59;5055867;28;45376;-60
2021/12/20 02:43:29;;;;;;;;;39.00;33.75;;;;;7.37;67.62;101882.28;5056010;28;45376;-62
2021/12/20 02:45:59;;;;;;;;;36.00;29.25;;;;;7.38;67.68;101878.75;5055928;28;45681;-61
2021/12/20 02:48:24;;;;;;;;;34.75;25.75;;;;;7.37;67.72;101877.88;5055618;28;47209;-61
2021/12/20 02:50:53;;;;;;;;;34.25;26.50;;;;;7.36;67.65;101878.81;5058134;28;68454;-60
2021/12/20 02:53:18;;;;;;;;;37.00;30.00;;;;;7.38;67.73;101876.97;5059393;28;45224;-61
2021/12/20 02:55:44;;;;;;;;;39.50;29.25;;;;;7.40;67.85;101882.13;5058605;28;60561;-62
2021/12/20 02:58:09;;;;;;;;;38.25;32.25;;;;;7.40;67.93;101879.50;5058130;28;70318;-61
2021/12/20 03:00:35;;;;;;;;;38.00;27.25;;;;;7.41;67.47;101879.41;5058374;28;61504;-62
2021/12/20 03:03:00;;;;;;;;;40.00;32.00;;;;;7.43;67.52;101871.47;5058258;28;66831;-61
2021/12/20 03:05:25;;;;;;;;;40.00;32.25;;;;;7.42;67.17;101878.50;5059104;28;45220;-62
2021/12/20 03:07:54;;;;;;;;;40.00;30.50;;;;;7.41;66.94;101866.34;5058669;28;50321;-61
2021/12/20 03:10:21;;;;;;;;;37.00;30.75;;;;;7.39;67.10;101862.13;5058876;28;45391;-61
2021/12/20 03:12:48;;;;;;;;;38.25;31.75;;;;;7.39;67.30;101869.97;5041325;28;45403;-61
2021/12/20 03:15:19;;;;;;;;;38.75;31.50;;;;;7.38;67.28;101878.75;5041377;28;45257;-62
2021/12/20 03:17:44;;;;;;;;;37.50;31.50;;;;;7.39;67.20;101859.53;5057540;28;47202;-62
2021/12/20 03:20:10;;;;;;;;;37.50;33.25;;;;;7.38;67.33;101857.84;5058093;28;63668;-62
2021/12/20 03:22:35;;;;;;;;;37.75;30.00;;;;;7.37;67.50;101850.91;5058949;28;45697;-61
2021/12/20 03:25:00;;;;;;;;;35.00;31.50;;;;;7.38;67.34;101857.84;5058655;28;45264;-62
2021/12/20 03:27:26;;;;;;;;;38.00;29.50;;;;;7.38;67.31;101853.44;5039955;28;66757;-61
2021/12/20 03:29:51;;;;;;;;;36.75;30.25;;;;;7.38;67.14;101844.75;5058412;28;45241;-63
2021/12/20 03:32:17;;;;;;;;;43.50;31.00;;;;;7.37;67.35;101845.69;5058149;28;54142;-61
2021/12/20 03:34:42;;;;;;;;;39.25;33.25;;;;;7.36;67.53;101849.22;5057805;28;63341;-62
2021/12/20 03:37:08;;;;;;;;;40.25;32.00;;;;;7.37;67.39;101845.69;5023851;28;45525;-61
2021/12/20 03:39:33;;;;;;;;;35.50;26.75;;;;;7.37;67.32;101840.44;5023764;28;45296;-62
2021/12/20 03:42:00;;;;;;;;;34.50;27.50;;;;;7.37;67.33;101848.28;5040528;28;45799;-61
2021/12/20 03:44:25;;;;;;;;;39.50;32.50;;;;;7.37;67.24;101845.69;5040494;28;45178;-61
2021/12/20 03:46:51;;;;;;;;;42.00;33.50;;;;;7.37;67.42;101843.06;5058216;28;45626;-60
2021/12/20 03:49:16;;;;;;;;;38.50;31.25;;;;;7.37;67.46;101843.06;5039478;28;67288;-61
2021/12/20 03:51:42;;;;;;;;;38.00;33.50;;;;;7.37;67.25;101843.91;5040633;28;45448;-61
2021/12/20 03:54:07;;;;;;;;;36.00;34.00;;;;;7.38;67.45;101844.75;5058538;28;45422;-63
2021/12/20 03:56:33;;;;;;;;;41.75;33.75;;;;;7.38;67.44;101844.75;5057400;28;69836;-62
2021/12/20 03:58:58;;;;;;;;;41.50;34.25;;;;;7.37;67.45;101843.06;5058017;28;45435;-60
2021/12/20 04:01:25;;;;;;;;;41.00;33.00;;;;;7.37;67.37;101843.06;5056756;28;58346;-61
2021/12/20 04:03:51;;;;;;;;;43.00;35.50;;;;;7.36;67.45;101838.75;5039685;28;45242;-62
2021/12/20 04:06:16;;;;;;;;;45.50;36.25;;;;;7.35;67.41;101842.31;5040111;28;45284;-61
2021/12/20 04:08:42;;;;;;;;;41.25;34.00;;;;;7.34;67.25;101843.22;5057973;28;45293;-61
2021/12/20 04:11:08;;;;;;;;;38.50;34.00;;;;;7.34;67.33;101845.84;5040041;28;45341;-61
2021/12/20 04:13:33;;;;;;;;;42.75;32.50;;;;;7.34;67.21;101846.69;5057681;28;50303;-60
2021/12/20 04:15:59;;;;;;;;;43.25;28.50;;;;;7.34;67.19;101846.69;5057044;28;69220;-60
2021/12/20 04:18:24;;;;;;;;;32.00;28.25;;;;;7.35;67.25;101845.75;5039787;28;45333;-61
2021/12/20 04:20:50;;;;;;;;;36.00;31.50;;;;;7.35;67.05;101850.16;5057953;28;45304;-62
2021/12/20 04:23:15;;;;;;;;;35.00;33.00;;;;;7.35;66.95;101850.16;5057963;28;45245;-61
2021/12/20 04:25:41;;;;;;;;;34.25;30.50;;;;;7.35;66.92;101855.38;5056669;28;45411;-63
2021/12/20 04:28:06;;;;;;;;;33.50;28.00;;;;;7.34;66.85;101845.84;5039572;28;47661;-63
2021/12/20 04:30:32;;;;;;;;;36.00;31.75;;;;;7.35;66.80;101863.22;5039587;28;45603;-60
2021/12/20 04:32:57;;;;;;;;;30.25;25.75;;;;;7.34;66.87;101864.16;5039757;28;45242;-62
2021/12/20 04:35:23;;;;;;;;;30.75;30.00;;;;;7.32;66.67;101858.97;5057444;28;46539;-61
2021/12/20 04:37:49;;;;;;;;;32.75;27.75;;;;;7.32;66.56;101848.53;5056576;28;68131;-60
2021/12/20 04:40:21;;;;;;;;;31.25;26.25;;;;;7.28;66.59;101847.84;5057521;28;45453;-60
2021/12/20 04:42:47;;;;;;;;;33.25;26.00;;;;;7.26;66.76;101841.88;5057591;28;45428;-60
2021/12/20 04:45:13;;;;;;;;;26.75;25.00;;;;;7.26;66.82;101854.09;5057274;28;45482;-63
2021/12/20 04:47:38;;;;;;;;;29.75;24.25;;;;;7.24;66.68;101854.19;5039311;28;45319;-62
2021/12/20 04:50:04;;;;;;;;;37.75;28.25;;;;;7.23;66.69;101849.88;5057475;28;45377;-64
2021/12/20 04:52:29;;;;;;;;;37.50;25.75;;;;;7.20;66.79;101844.81;5057287;28;45372;-61
2021/12/20 04:54:55;;;;;;;;;31.75;26.75;;;;;7.21;66.69;101856.09;5056271;28;73194;-62
2021/12/20 04:57:20;;;;;;;;;33.75;26.00;;;;;7.20;66.79;101850.03;5056278;28;69600;-63
2021/12/20 04:59:45;;;;;;;;;31.50;25.50;;;;;7.18;66.87;101851.88;5056511;28;60087;-61
2021/12/20 05:02:11;;;;;;;;;39.75;24.75;;;;;7.17;66.88;101850.19;5056365;28;65760;-61
2021/12/20 05:04:36;;;;;;;;;34.00;26.25;;;;;7.17;67.09;101854.56;5038376;28;66619;-60
2021/12/20 05:07:03;;;;;;;;;34.00;23.00;;;;;7.17;66.90;101854.56;5038307;28;64712;-61
2021/12/20 05:09:35;;;;;;;;;27.00;23.25;;;;;7.16;66.75;101840.66;5057098;28;45566;-61
2021/12/20 05:12:01;;;;;;;;;32.00;27.50;;;;;7.17;66.75;101852.81;5039599;28;45336;-60
2021/12/20 05:14:27;;;;;;;;;33.00;28.25;;;;;7.19;66.90;101852.72;5057010;28;45389;-61
2021/12/20 05:16:52;;;;;;;;;31.50;25.50;;;;;7.17;66.90;101858.03;5038199;28;69542;-60
2021/12/20 05:19:17;;;;;;;;;25.75;22.00;;;;;7.18;66.74;101857.13;5056209;28;62175;-61
2021/12/20 05:21:43;;;;;;;;;35.00;27.25;;;;;7.17;66.82;101850.19;5056308;28;56920;-64
2021/12/20 05:24:08;;;;;;;;;32.25;25.75;;;;;7.17;66.41;101860.66;5038250;28;59373;-63
2021/12/20 05:26:33;;;;;;;;;32.25;27.50;;;;;7.15;66.36;101852.03;5037732;28;67985;-63
2021/12/20 05:29:00;;;;;;;;;26.25;20.50;;;;;7.13;66.38;101857.38;5056212;28;60389;-65
2021/12/20 05:31:26;;;;;;;;;32.00;22.75;;;;;7.12;66.48;101860.03;5056706;28;45610;-62
2021/12/20 05:33:51;;;;;;;;;25.50;22.00;;;;;7.10;66.35;101860.16;5055853;28;69106;-63
2021/12/20 05:36:16;;;;;;;;;26.50;21.25;;;;;7.09;66.20;101863.69;5055598;28;70451;-63
2021/12/20 05:38:42;;;;;;;;;27.25;19.25;;;;;7.08;66.13;101858.50;5037635;28;68531;-63
2021/12/20 05:41:07;;;;;;;;;31.75;25.50;;;;;7.06;66.11;101858.63;5038005;28;62422;-63
2021/12/20 05:43:32;;;;;;;;;24.75;19.25;;;;;7.06;66.16;101861.22;5055681;28;71168;-62
2021/12/20 05:45:58;;;;;;;;;26.50;22.75;;;;;7.04;66.17;101854.38;5055752;28;67654;-64
2021/12/20 05:48:23;;;;;;;;;23.50;18.50;;;;;7.03;65.99;101847.47;5055810;28;60316;-64
2021/12/20 05:50:49;;;;;;;;;30.75;19.50;;;;;7.00;65.98;101851.09;5055798;28;62699;-62
2021/12/20 05:53:14;;;;;;;;;25.25;19.75;;;;;6.97;66.01;101857.31;5056360;28;46148;-62
2021/12/20 05:55:39;;;;;;;;;28.00;23.00;;;;;6.95;66.00;101859.16;5055454;28;69249;-63
2021/12/20 05:58:05;;;;;;;;;24.25;18.00;;;;;6.92;65.83;101855.88;5056514;28;45492;-62
2021/12/20 06:00:30;;;;;;;;;20.50;17.75;;;;;6.91;66.05;101859.41;5056445;28;45614;-63
2021/12/20 06:02:55;;;;;;;;;25.25;17.50;;;;;6.89;66.07;101862.06;5037573;28;68900;-63
2021/12/20 06:05:21;;;;;;;;;23.00;18.75;;;;;6.86;66.24;101857.03;5038342;28;45607;-63
2021/12/20 06:07:47;;;;;;;;;29.25;23.00;;;;;6.84;66.31;101864.13;5038309;28;45246;-63
2021/12/20 06:10:15;;;;;;;;;20.50;19.00;;;;;6.84;66.39;101856.28;5056161;28;45232;-64
2021/12/20 06:12:40;;;;;;;;;27.25;22.25;;;;;6.83;66.22;101859.81;5055967;28;45383;-62
2021/12/20 06:15:06;;;;;;;;;31.50;20.00;;;;;6.85;66.29;101860.56;5055897;28;45301;-63
2021/12/20 06:17:32;;;;;;;;;25.50;21.00;;;;;6.85;66.39;101852.75;5055478;28;45365;-63
2021/12/20 06:19:57;;;;;;;;;25.75;20.00;;;;;6.87;66.54;101856.13;5056166;28;45467;-64
2021/12/20 06:22:22;;;;;;;;;29.75;21.50;;;;;6.88;66.59;101854.34;5055197;28;70010;-63
2021/12/20 06:24:48;;;;;;;;;29.00;23.00;;;;;6.89;66.63;101862.06;5057159;28;62175;-63
2021/12/20 06:27:13;;;;;;;;;23.00;18.00;;;;;6.90;66.48;101862.94;5058710;28;61169;-63
2021/12/20 06:29:38;;;;;;;;;27.25;22.25;;;;;6.89;66.61;101859.47;5058810;28;62791;-63
2021/12/20 06:32:04;;;;;;;;;28.25;20.75;;;;;6.91;66.43;101852.38;5058482;28;70823;-64
2021/12/20 06:34:29;;;;;;;;;30.00;23.50;;;;;6.91;66.45;101859.41;5059364;28;45439;-63
2021/12/20 06:36:55;;;;;;;;;22.25;18.25;;;;;6.92;66.33;101871.53;5058315;28;67478;-63
2021/12/20 06:39:20;;;;;;;;;25.25;16.25;;;;;6.93;66.22;101868.84;5058344;28;69113;-63
2021/12/20 06:41:45;;;;;;;;;24.00;18.50;;;;;6.92;66.27;101876.78;5059152;28;45430;-63
2021/12/20 06:44:11;;;;;;;;;26.50;20.00;;;;;6.93;66.28;101873.22;5040410;28;69426;-62
2021/12/20 06:46:38;;;;;;;;;25.50;19.75;;;;;6.92;66.21;101874.97;5059299;28;45298;-63
2021/12/20 06:49:05;;;;;;;;;29.75;19.00;;;;;6.92;66.46;101871.53;5059223;28;45282;-62
2021/12/20 06:51:34;;;;;;;;;23.00;20.00;;;;;6.93;66.38;101878.47;5041118;28;45529;-63
2021/12/20 06:54:00;;;;;;;;;24.00;18.25;;;;;6.94;66.21;101880.97;5058345;28;45391;-63
2021/12/20 06:56:25;;;;;;;;;29.50;19.00;;;;;6.92;66.45;101890.66;5059172;28;45559;-63
2021/12/20 06:58:53;;;;;;;;;29.25;18.25;;;;;6.94;66.46;101886.19;5058024;28;67464;-64
2021/12/20 07:01:19;;;;;;;;;20.00;16.50;;;;;6.95;66.42;101885.28;5058760;28;47090;-63
2021/12/20 07:03:45;;;;;;;;;22.75;18.00;;;;;6.96;66.41;101892.19;5058593;28;50511;-63
2021/12/20 07:06:11;;;;;;;;;34.50;23.75;;;;;6.96;66.28;101888.75;5059094;28;45319;-64
2021/12/20 07:08:36;;;;;;;;;24.25;19.00;;;;;6.98;66.16;101892.13;5058055;28;60245;-63
2021/12/20 07:11:01;;;;;;;;;27.25;20.00;;;;;6.96;66.11;101889.59;5057507;28;69986;-63
2021/12/20 07:13:27;;;;;;;;;29.25;22.50;;;;;6.96;65.89;101879.13;5058537;28;45340;-63
2021/12/20 07:15:52;;;;;;;;;29.75;22.50;;;;;6.97;66.04;101887.84;5040459;28;45459;-64
2021/12/20 07:18:18;;;;;;;;;23.00;19.75;;;;;6.97;66.01;101891.28;5040539;28;45812;-62
2021/12/20 07:20:43;;;;;;;;;28.50;25.50;;;;;6.97;66.10;101886.03;5057408;28;73355;-61
2021/12/20 07:23:08;;;;;;;;;21.25;19.50;;;;;6.96;65.75;101873.91;5057651;28;64754;-63
2021/12/20 07:25:34;;;;;;;;;25.25;20.50;;;;;6.96;65.43;101889.59;5058491;28;45475;-62
2021/12/20 07:27:59;;;;;;;;;29.00;19.00;;;;;6.95;65.85;101887.91;5057893;28;61657;-64
2021/12/20 07:30:24;;;;;;;;;27.00;20.50;;;;;6.96;65.87;101893.97;5039772;28;45969;-62
2021/12/20 07:32:50;;;;;;;;;27.00;19.00;;;;;6.96;65.79;101899.22;5058082;28;49772;-63
2021/12/20 07:35:15;;;;;;;;;30.50;21.00;;;;;6.95;65.75;101898.34;5057927;28;45421;-61
2021/12/20 07:37:42;;;;;;;;;26.25;21.00;;;;;6.95;65.84;101898.34;5039779;28;45521;-62
2021/12/20 07:40:07;;;;;;;;;22.75;20.00;;;;;6.96;65.88;101905.25;5040078;28;45251;-63
2021/12/20 07:42:33;;;;;;;;;24.50;18.75;;;;;6.96;65.83;101901.81;5039931;28;45391;-62
2021/12/20 07:44:58;;;;;;;;;31.00;24.00;;;;;6.95;65.88;101895.72;5058257;28;45355;-63
2021/12/20 07:47:24;;;;;;;;;24.75;21.75;;;;;6.94;66.03;101891.44;5058364;28;45358;-62
2021/12/20 07:49:49;;;;;;;;;20.75;18.25;;;;;6.95;66.29;101892.28;5056812;28;71383;-63
2021/12/20 07:52:15;;;;;;;;;27.75;22.50;;;;;6.95;66.38;101895.72;5057790;28;45331;-62
2021/12/20 07:54:40;;;;;;;;;16.75;9.25;;;;;6.97;66.03;101888.66;5058100;28;45532;-63
2021/12/20 07:57:06;;;;;;;;;29.25;24.50;;;;;6.97;65.97;101891.28;5023404;28;45306;-63
2021/12/20 07:59:31;;;;;;;;;27.50;25.00;;;;;6.97;65.98;101891.28;5057062;28;74340;-62
2021/12/20 08:01:56;;;;;;;;;36.00;24.75;;;;;6.97;65.79;101888.66;5057077;28;68147;-62
2021/12/20 08:04:22;;;;;;;;;26.50;21.75;;;;;6.97;65.87;101885.22;5040010;28;45553;-63
2021/12/20 08:06:48;;;;;;;;;30.25;25.25;;;;;6.98;65.86;101887.75;5057868;28;45474;-62
2021/12/20 08:09:14;;;;;;;;;35.50;23.00;;;;;7.00;65.87;101892.03;5057470;28;50227;-62
2021/12/20 08:11:40;;;;;;;;;33.75;26.50;;;;;7.00;65.79;101892.91;5039549;28;45282;-63
2021/12/20 08:14:05;;;;;;;;;23.50;19.00;;;;;7.03;65.73;101897.13;5057558;28;45281;-62
2021/12/20 08:16:31;;;;;;;;;28.25;20.50;;;;;7.02;65.67;101892.81;5057168;28;57462;-63
2021/12/20 08:18:56;;;;;;;;;33.25;24.00;;;;;7.03;65.50;101902.34;5056519;28;72463;-63
2021/12/20 08:21:22;;;;;;;;;29.50;21.00;;;;;7.03;65.53;101902.34;5038166;28;72478;-59
2021/12/20 08:23:48;;;;;;;;;28.75;23.50;;;;;7.02;65.52;101903.25;5048323;28;58373;-62
2021/12/20 08:26:14;;;;;;;;;33.75;21.75;;;;;7.03;65.19;101910.19;5033217;28;45612;-60
2021/12/20 08:28:40;;;;;;;;;32.00;27.25;;;;;7.03;65.21;101918.03;5029929;28;45485;-59
2021/12/20 08:31:07;;;;;;;;;30.00;25.25;;;;;7.03;64.91;101910.19;5035221;28;45398;-60
2021/12/20 08:33:33;;;;;;;;;35.50;28.50;;;;;7.02;64.97;101909.34;5058601;28;45481;-64
2021/12/20 08:36:02;;;;;;;;;30.25;22.75;;;;;7.03;64.85;101918.03;5075886;28;66818;-64
2021/12/20 08:38:28;;;;;;;;;35.25;25.75;;;;;7.04;65.02;101919.72;5076676;28;45394;-64
2021/12/20 08:40:53;;;;;;;;;24.50;20.50;;;;;7.04;64.99;101920.56;5076525;28;66629;-64
2021/12/20 08:43:19;;;;;;;;;28.50;25.50;;;;;7.04;64.66;101925.78;5059577;28;45469;-63
2021/12/20 08:45:45;;;;;;;;;29.75;24.25;;;;;7.05;64.55;101924.00;5077073;28;46302;-63
2021/12/20 08:48:10;;;;;;;;;36.50;27.00;;;;;7.04;64.44;101925.78;5075207;28;75956;-63
2021/12/20 08:50:35;;;;;;;;;30.75;26.50;;;;;7.04;64.51;101922.31;5075820;28;69401;-62
2021/12/20 08:53:01;;;;;;;;;32.75;25.50;;;;;7.05;64.62;101929.25;5076429;28;57554;-63
2021/12/20 08:55:26;;;;;;;;;29.00;26.00;;;;;7.05;64.09;101930.09;5077109;28;45512;-63
2021/12/20 08:57:52;;;;;;;;;34.25;26.00;;;;;7.05;64.11;101929.25;5077095;28;46143;-63
2021/12/20 09:00:19;;;;;;;;;25.00;22.00;;;;;7.05;63.87;101939.69;5077031;28;48444;-62
2021/12/20 09:02:45;;;;;;;;;31.75;21.75;;;;;7.04;63.87;101944.09;5077028;28;45297;-62
2021/12/20 09:05:10;;;;;;;;;26.00;18.00;;;;;7.02;63.64;101935.47;5077091;28;45489;-62
2021/12/20 09:07:36;;;;;;;;;25.25;22.00;;;;;7.01;63.78;101938.16;5057893;28;72529;-62
2021/12/20 09:10:03;;;;;;;;;33.75;21.00;;;;;7.00;63.73;101939.94;5077005;28;45389;-63
2021/12/20 09:12:28;;;;;;;;;31.75;21.00;;;;;7.00;63.79;101939.09;5077178;27;45465;-62
2021/12/20 09:14:54;;;;;;;;;31.00;22.75;;;;;6.98;63.76;101936.56;5076647;28;52011;-63
2021/12/20 09:17:19;;;;;;;;;28.75;20.00;;;;;6.98;63.75;101940.00;5075946;28;73993;-64
2021/12/20 09:19:45;;;;;;;;;30.00;25.75;;;;;7.00;63.84;101942.56;5076798;28;45292;-62
2021/12/20 09:22:11;;;;;;;;;28.25;24.25;;;;;7.02;63.75;101939.84;5077126;28;45209;-63
2021/12/20 09:24:38;;;;;;;;;26.00;23.00;;;;;7.01;64.04;101940.78;5077154;28;45689;-62
2021/12/20 09:27:04;;;;;;;;;26.25;20.75;;;;;7.02;63.76;101940.72;5058614;28;46063;-62
2021/12/20 09:29:29;;;;;;;;;29.25;19.00;;;;;7.02;63.87;101940.72;5076766;27;45497;-64
2021/12/20 09:31:55;;;;;;;;;28.25;23.75;;;;;7.02;63.49;101939.84;5076427;28;54362;-64
2021/12/20 09:34:21;;;;;;;;;28.75;20.00;;;;;7.01;63.60;101943.38;5076904;28;45572;-63
2021/12/20 09:36:46;;;;;;;;;20.00;18.50;;;;;7.02;63.50;101951.16;5057622;28;73724;-64
2021/12/20 09:39:13;;;;;;;;;25.00;19.75;;;;;7.01;63.37;101939.03;5076138;28;63707;-63
2021/12/20 09:44:05;;;;;;;;;21.75;18.50;;;;;7.01;63.38;101939.03;5076737;28;45205;-63
2021/12/20 09:46:30;;;;;;;;;26.00;19.50;;;;;7.01;63.47;101944.25;5058365;28;46371;-63
2021/12/20 09:48:57;;;;;;;;;26.75;18.50;;;;;7.02;63.46;101945.06;5057479;28;59374;-62
2021/12/20 09:51:23;;;;;;;;;28.75;23.00;;;;;7.02;63.40;101945.06;5057950;28;45382;-62
2021/12/20 09:53:48;;;;;;;;;24.25;21.00;;;;;7.02;63.50;101950.31;5057756;28;45592;-63
2021/12/20 09:56:14;;;;;;;;;28.75;21.75;;;;;7.03;63.42;101949.38;5075276;28;71286;-63
2021/12/20 09:58:40;;;;;;;;;29.75;24.00;;;;;7.03;63.52;101950.25;5057463;28;45284;-64
2021/12/20 10:01:07;;;;;;;;;45.00;37.00;;;;;7.04;63.63;101948.47;5075986;28;46165;-63
2021/12/20 10:03:34;;;;;;;;;54.50;45.00;;;;;7.04;63.54;101949.31;5058525;28;45206;-63
2021/12/20 10:06:00;;;;;;;;;63.50;48.00;;;;;7.06;63.57;101950.09;5075451;28;74644;-63
2021/12/20 10:08:32;;;;;;;;;57.25;42.75;;;;;7.05;63.53;101947.53;5058362;28;45376;-63
2021/12/20 10:11:03;;;;;;;;;51.00;40.00;;;;;7.07;63.29;101950.91;5076414;28;45139;-63
2021/12/20 10:13:33;;;;;;;;;27.25;20.75;;;;;7.06;63.06;101950.09;5041584;28;45502;-62
2021/12/20 10:15:59;;;;;;;;;20.25;18.25;;;;;7.06;63.10;101951.84;5058406;28;46164;-63
2021/12/20 10:18:25;;;;;;;;;14.50;14.50;;;;;7.07;63.03;101948.31;5058203;28;45470;-62
2021/12/20 10:20:53;;;;;;;;;31.50;26.00;;;;;7.07;63.28;101949.16;5058295;28;45551;-62
2021/12/20 10:23:22;;;;;;;;;32.00;28.75;;;;;7.07;62.96;101951.78;5057894;28;45459;-63
2021/12/20 10:25:52;;;;;;;;;28.50;25.50;;;;;7.06;62.75;101950.09;5075532;28;45269;-63
2021/12/20 10:28:26;;;;;;;;;30.75;23.75;;;;;7.07;62.83;101954.38;5075958;28;45281;-62
2021/12/20 10:31:08;;;;;;;;;40.00;32.25;;;;;7.06;62.57;101947.47;5057797;28;45276;-63
2021/12/20 10:33:34;;;;;;;;;56.75;43.25;;;;;7.06;62.62;101947.47;5057971;28;45306;-63
2021/12/20 10:36:02;;;;;;;;;47.25;41.00;;;;;7.05;62.50;101935.31;5075820;27;45301;-64
2021/12/20 10:38:31;;;;;;;;;42.25;36.50;;;;;7.06;62.70;101946.63;5057665;28;45641;-63
2021/12/20 10:40:58;;;;;;;;;41.75;34.25;;;;;7.06;62.56;101949.22;5075739;28;45276;-62
2021/12/20 10:43:45;;;;;;;;;25.75;19.00;;;;;7.05;62.46;101948.41;5076003;28;45561;-62
2021/12/20 10:46:13;;;;;;;;;15.75;12.50;;;;;7.05;62.49;101944.91;5059443;28;46308;-63
2021/12/20 10:48:38;;;;;;;;;12.75;11.25;;;;;7.04;62.39;101938.00;5075872;28;45430;-62
2021/12/20 10:51:04;;;;;;;;;17.50;11.50;;;;;7.02;62.51;101930.25;5075933;28;45766;-62
2021/12/20 10:53:29;;;;;;;;;17.00;14.00;;;;;7.01;62.47;101925.09;5075857;28;45417;-65
2021/12/20 10:56:00;;;;;;;;;16.75;16.75;;;;;7.00;62.63;101926.88;5057680;28;46074;-63
2021/12/20 10:58:36;;;;;;;;;20.00;17.75;;;;;6.98;62.61;101929.56;5075953;28;45316;-63
2021/12/20 11:03:57;;;;;;;;;19.50;16.25;;;;;6.99;62.19;101933.03;5057700;28;45200;-63
2021/12/20 11:09:06;;;;;;;;;18.50;15.50;;;;;6.96;62.20;101926.16;5057368;28;45444;-62
2021/12/20 11:11:33;;;;;;;;;18.00;16.00;;;;;6.96;62.29;101926.16;5078401;28;45390;-64
2021/12/20 11:13:59;;;;;;;;;23.75;17.00;;;;;6.97;62.24;101922.63;5061073;28;45351;-62
2021/12/20 11:16:36;;;;;;;;;22.00;17.25;;;;;6.97;61.88;101914.78;5078656;27;45313;-62
2021/12/20 11:19:07;;;;;;;;;17.50;12.00;;;;;6.95;61.83;101908.81;5079068;28;45280;-64
2021/12/20 11:21:57;;;;;;;;;15.25;10.75;;;;;6.92;61.88;101902.91;5078982;28;45352;-64
2021/12/20 11:24:49;;;;;;;;;22.25;16.25;;;;;6.90;61.97;101908.19;5078744;28;45459;-63
2021/12/20 11:27:19;;;;;;;;;21.25;18.50;;;;;6.90;62.08;101907.34;5029873;28;46325;-63
2021/12/20 11:29:46;;;;;;;;;17.00;12.00;;;;;6.90;61.79;101900.34;5040380;28;45788;-64